createdAt,value
2023-02-02T00:01:34.547Z,2.72
2023-02-02T00:04:02.174Z,2.79
2023-02-02T00:06:31.153Z,2.84
2023-02-02T00:09:00.955Z,2.80
2023-02-02T00:11:28.801Z,2.69
2023-02-02T00:13:56.062Z,2.65
2023-02-02T00:16:35.289Z,2.75
2023-02-02T00:19:24.771Z,2.71
2023-02-02T00:21:53.535Z,2.67
2023-02-02T00:24:21.397Z,2.65
2023-02-02T00:26:51.576Z,2.81
2023-02-02T00:29:31.267Z,2.63
2023-02-02T00:31:58.664Z,2.65
2023-02-02T00:34:26.044Z,2.58
2023-02-02T00:36:53.676Z,2.51
2023-02-02T00:39:26.054Z,2.46
2023-02-02T00:41:54.263Z,2.50
2023-02-02T00:44:40.665Z,2.43
2023-02-02T00:47:07.996Z,2.49
2023-02-02T00:49:35.339Z,2.42
2023-02-02T00:52:02.743Z,2.47
2023-02-02T00:54:30.575Z,2.49
2023-02-02T00:56:57.944Z,2.51
2023-02-02T00:59:25.289Z,2.51
2023-02-02T01:01:52.610Z,2.51
2023-02-02T01:04:20.005Z,2.53
2023-02-02T01:06:47.316Z,2.54
2023-02-02T01:09:14.655Z,2.66
2023-02-02T01:11:42.066Z,2.64
2023-02-02T01:14:09.415Z,2.58
2023-02-02T01:16:37.207Z,2.53
2023-02-02T01:19:04.947Z,2.50
2023-02-02T01:21:32.514Z,2.53
2023-02-02T01:24:00.014Z,2.45
2023-02-02T01:26:27.695Z,2.44
2023-02-02T01:28:55.128Z,2.38
2023-02-02T01:31:22.494Z,2.42
2023-02-02T01:33:50.678Z,2.40
2023-02-02T01:36:23.360Z,2.44
2023-02-02T01:38:51.155Z,2.33
2023-02-02T01:41:24.658Z,2.16
2023-02-02T01:43:57.193Z,2.09
2023-02-02T01:46:36.129Z,2.21
2023-02-02T01:49:10.060Z,2.14
2023-02-02T01:51:43.450Z,2.12
2023-02-02T01:54:16.118Z,2.13
2023-02-02T01:56:50.397Z,2.06
2023-02-02T01:59:18.796Z,2.11
2023-02-02T02:01:48.789Z,2.12
2023-02-02T02:04:17.506Z,2.10
2023-02-02T02:06:45.866Z,2.19
2023-02-02T02:09:13.488Z,2.19
2023-02-02T02:11:40.891Z,2.23
2023-02-02T02:14:30.101Z,2.15
2023-02-02T02:17:15.400Z,2.02
2023-02-02T02:20:07.567Z,1.86
2023-02-02T02:23:16.815Z,1.77
2023-02-02T02:26:22.368Z,1.68
2023-02-02T02:29:14.928Z,1.72
2023-02-02T02:31:48.511Z,1.68
2023-02-02T02:34:43.191Z,1.70
2023-02-02T02:37:12.941Z,1.96
2023-02-02T02:40:08.573Z,2.03
2023-02-02T02:42:41.775Z,1.96
2023-02-02T02:45:12.014Z,1.91
2023-02-02T02:47:41.641Z,1.89
2023-02-02T02:50:09.876Z,1.90
2023-02-02T02:52:38.845Z,1.88
2023-02-02T02:55:07.432Z,1.92
2023-02-02T02:57:50.628Z,2.02
2023-02-02T03:00:48.191Z,2.11
2023-02-02T03:03:41.505Z,2.06
2023-02-02T03:06:29.388Z,2.00
2023-02-02T03:09:23.198Z,1.98
2023-02-02T03:11:50.835Z,2.02
2023-02-02T03:14:18.299Z,1.98
2023-02-02T03:16:45.831Z,2.10
2023-02-02T03:19:13.424Z,2.08
2023-02-02T03:21:40.884Z,1.95
2023-02-02T03:24:08.465Z,1.95
2023-02-02T03:26:36.216Z,1.98
2023-02-02T03:29:03.799Z,1.94
2023-02-02T03:31:31.239Z,1.95
2023-02-02T03:33:58.739Z,1.97
2023-02-02T03:36:26.415Z,1.93
2023-02-02T03:38:54.041Z,1.90
2023-02-02T03:41:21.660Z,1.78
2023-02-02T03:43:49.270Z,1.80
2023-02-02T03:46:16.729Z,1.93
2023-02-02T03:48:44.413Z,1.94
2023-02-02T03:51:13.928Z,1.90
2023-02-02T03:53:47.822Z,1.92
2023-02-02T03:56:16.206Z,1.81
2023-02-02T03:58:43.776Z,1.85
2023-02-02T04:01:13.385Z,1.95
2023-02-02T04:03:41.197Z,1.98
2023-02-02T04:06:09.098Z,1.96
2023-02-02T04:08:36.705Z,1.96
2023-02-02T04:11:04.095Z,1.81
2023-02-02T04:13:31.511Z,1.81
2023-02-02T04:16:00.206Z,1.78
2023-02-02T04:18:28.629Z,1.85
2023-02-02T04:20:57.765Z,1.90
2023-02-02T04:23:25.584Z,1.83
2023-02-02T04:25:53.261Z,1.71
2023-02-02T04:28:22.615Z,1.86
2023-02-02T04:30:50.975Z,1.83
2023-02-02T04:33:18.463Z,1.93
2023-02-02T04:35:46.138Z,2.18
2023-02-02T04:38:14.429Z,2.11
2023-02-02T04:40:44.656Z,1.90
2023-02-02T04:43:12.655Z,1.81
2023-02-02T04:45:40.446Z,1.77
2023-02-02T04:48:08.255Z,1.90
2023-02-02T04:50:35.801Z,1.76
2023-02-02T04:53:03.876Z,1.74
2023-02-02T04:55:31.271Z,1.81
2023-02-02T04:57:58.756Z,1.71
2023-02-02T05:00:26.214Z,1.84
2023-02-02T05:02:53.736Z,1.82
2023-02-02T05:05:21.274Z,1.96
2023-02-02T05:07:48.749Z,1.93
2023-02-02T05:10:16.362Z,1.74
2023-02-02T05:12:43.866Z,1.83
2023-02-02T05:15:11.522Z,1.88
2023-02-02T05:17:39.147Z,1.92
2023-02-02T05:20:07.078Z,2.02
2023-02-02T05:22:35.248Z,2.00
2023-02-02T05:25:02.630Z,1.89
2023-02-02T05:27:30.533Z,2.02
2023-02-02T05:29:57.907Z,1.80
2023-02-02T05:32:25.447Z,1.85
2023-02-02T05:34:52.809Z,1.86
2023-02-02T05:37:20.574Z,1.85
2023-02-02T05:39:49.833Z,1.87
2023-02-02T05:42:17.231Z,1.83
2023-02-02T05:44:44.653Z,1.85
2023-02-02T05:47:12.194Z,1.74
2023-02-02T05:49:39.628Z,1.88
2023-02-02T05:52:08.376Z,1.73
2023-02-02T05:54:35.803Z,1.80
2023-02-02T05:57:03.437Z,1.69
2023-02-02T05:59:30.912Z,1.71
2023-02-02T06:01:58.617Z,1.66
2023-02-02T06:04:26.342Z,1.75
2023-02-02T06:06:53.893Z,1.92
2023-02-02T06:09:21.375Z,2.01
2023-02-02T06:11:48.746Z,2.13
2023-02-02T06:14:16.195Z,2.16
2023-02-02T06:16:43.871Z,2.03
2023-02-02T06:19:11.322Z,2.02
2023-02-02T06:21:38.898Z,1.97
2023-02-02T06:24:07.195Z,1.96
2023-02-02T06:26:34.829Z,1.83
2023-02-02T06:29:02.949Z,1.86
2023-02-02T06:31:30.817Z,1.89
2023-02-02T06:33:58.970Z,2.02
2023-02-02T06:36:27.651Z,2.23
2023-02-02T06:38:57.159Z,2.07
2023-02-02T06:41:25.523Z,1.93
2023-02-02T06:43:53.092Z,1.85
2023-02-02T06:46:20.606Z,1.87
2023-02-02T06:48:48.682Z,1.83
2023-02-02T06:51:16.682Z,1.74
2023-02-02T06:53:44.380Z,1.64
2023-02-02T06:56:13.139Z,1.62
2023-02-02T06:58:41.389Z,1.59
2023-02-02T07:01:12.126Z,1.60
2023-02-02T07:03:39.831Z,1.89
2023-02-02T07:06:27.657Z,2.06
2023-02-02T07:09:02.107Z,2.19
2023-02-02T07:11:39.095Z,2.36
2023-02-02T07:14:12.576Z,2.46
2023-02-02T07:16:40.049Z,3.15
2023-02-02T07:19:07.540Z,3.75
2023-02-02T07:21:37.892Z,4.08
2023-02-02T07:24:06.431Z,4.19
2023-02-02T07:26:36.285Z,4.13
2023-02-02T07:29:04.650Z,4.20
2023-02-02T07:31:34.807Z,4.66
2023-02-02T07:34:03.833Z,5.15
2023-02-02T07:36:31.363Z,5.91
2023-02-02T07:38:59.768Z,6.39
2023-02-02T07:41:28.010Z,6.65
2023-02-02T07:43:55.561Z,6.96
2023-02-02T07:46:23.018Z,6.48
2023-02-02T07:48:55.387Z,6.69
2023-02-02T07:51:24.681Z,8.05
2023-02-02T07:53:55.618Z,7.52
2023-02-02T07:56:26.468Z,7.33
2023-02-02T07:58:55.099Z,7.23
2023-02-02T08:01:26.086Z,7.57
2023-02-02T08:03:55.204Z,6.58
2023-02-02T08:06:25.834Z,6.80
2023-02-02T08:08:53.193Z,6.33
2023-02-02T08:11:22.568Z,6.57
2023-02-02T08:13:54.906Z,6.94
2023-02-02T08:16:23.798Z,7.20
2023-02-02T08:18:51.630Z,7.55
2023-02-02T08:21:19.777Z,8.04
2023-02-02T08:23:47.440Z,7.91
2023-02-02T08:26:18.306Z,8.60
2023-02-02T08:28:48.031Z,9.38
2023-02-02T08:31:19.033Z,10.31
2023-02-02T08:33:46.351Z,9.84
2023-02-02T08:36:15.527Z,10.07
2023-02-02T08:38:43.447Z,11.10
2023-02-02T08:41:14.088Z,10.74
2023-02-02T08:43:41.667Z,10.18
2023-02-02T08:46:11.896Z,9.82
2023-02-02T08:48:39.555Z,9.88
2023-02-02T08:51:10.019Z,9.46
2023-02-02T08:53:37.689Z,8.96
2023-02-02T08:56:07.908Z,8.66
2023-02-02T08:58:35.471Z,8.89
2023-02-02T09:01:14.841Z,8.57
2023-02-02T09:03:42.582Z,9.20
2023-02-02T09:06:12.761Z,9.63
2023-02-02T09:08:40.938Z,9.97
2023-02-02T09:11:19.260Z,10.88
2023-02-02T09:13:48.870Z,11.09
2023-02-02T09:16:18.273Z,12.21
2023-02-02T09:18:46.019Z,12.57
2023-02-02T09:21:16.097Z,13.88
2023-02-02T09:23:44.623Z,14.70
2023-02-02T09:26:30.303Z,14.61
2023-02-02T09:29:02.925Z,15.05
2023-02-02T09:31:34.083Z,14.60
2023-02-02T09:34:03.207Z,15.03
2023-02-02T09:36:30.779Z,15.69
2023-02-02T09:38:58.102Z,15.52
2023-02-02T09:41:37.855Z,16.29
2023-02-02T09:44:14.335Z,15.71
2023-02-02T09:47:19.030Z,16.46
2023-02-02T09:49:56.851Z,16.28
2023-02-02T09:52:56.355Z,15.92
2023-02-02T09:55:36.184Z,15.52
2023-02-02T09:58:13.038Z,15.79
2023-02-02T10:01:16.396Z,15.31
2023-02-02T10:03:56.082Z,14.94
2023-02-02T10:06:43.795Z,13.82
2023-02-02T10:09:35.133Z,14.31
2023-02-02T10:12:05.680Z,13.93
2023-02-02T10:15:00.618Z,13.09
2023-02-02T10:17:50.386Z,12.88
2023-02-02T10:20:21.184Z,12.57
2023-02-02T10:22:49.924Z,13.10
2023-02-02T10:25:17.937Z,13.34
2023-02-02T10:28:08.587Z,13.26
2023-02-02T10:31:00.993Z,13.10
2023-02-02T10:33:40.656Z,13.48
2023-02-02T10:36:31.810Z,13.37
2023-02-02T10:39:14.355Z,13.59
2023-02-02T10:41:50.319Z,13.35
2023-02-02T11:06:08.793Z,12.88
2023-02-02T11:08:43.024Z,13.42
2023-02-02T11:11:25.725Z,13.41
2023-02-02T11:14:08.259Z,13.00
2023-02-02T11:16:43.793Z,13.61
2023-02-02T11:19:33.818Z,13.95
2023-02-02T11:22:03.416Z,14.24
2023-02-02T11:25:02.116Z,14.17
2023-02-02T11:27:32.706Z,13.95
2023-02-02T11:30:10.106Z,14.06
2023-02-02T11:32:37.983Z,13.67
2023-02-02T11:35:10.922Z,13.76
2023-02-02T11:37:38.488Z,13.70
2023-02-02T11:40:31.216Z,13.60
2023-02-02T11:43:06.406Z,13.51
2023-02-02T11:45:40.420Z,13.29
2023-02-02T11:48:13.775Z,13.45
2023-02-02T11:50:49.174Z,13.20
2023-02-02T11:53:36.793Z,13.08
2023-02-02T11:56:07.831Z,13.47
2023-02-02T11:58:56.471Z,13.41
2023-02-02T12:01:25.867Z,13.76
2023-02-02T12:03:59.199Z,13.86
2023-02-02T12:06:34.264Z,14.15
2023-02-02T12:09:09.864Z,14.28
2023-02-02T12:11:49.668Z,13.99
2023-02-02T12:14:28.909Z,14.31
2023-02-02T12:17:14.710Z,14.43
2023-02-02T12:20:03.703Z,14.53
2023-02-02T12:22:58.960Z,14.38
2023-02-02T12:25:44.841Z,14.74
2023-02-02T12:28:43.825Z,14.92
2023-02-02T12:31:23.086Z,15.05
2023-02-02T12:34:10.728Z,15.05
2023-02-02T12:37:13.622Z,14.86
2023-02-02T12:40:12.742Z,15.00
2023-02-02T12:42:52.567Z,14.93
2023-02-02T12:45:58.574Z,15.03
2023-02-02T12:48:59.099Z,15.16
2023-02-02T12:51:57.671Z,14.72
2023-02-02T12:55:02.680Z,15.03
2023-02-02T12:57:40.058Z,14.89
2023-02-02T13:00:35.236Z,14.89
2023-02-02T13:03:32.810Z,14.75
2023-02-02T13:06:09.596Z,14.91
2023-02-02T13:09:12.613Z,14.54
2023-02-02T13:11:50.932Z,14.74
2023-02-02T13:14:31.886Z,14.79
2023-02-02T13:17:21.677Z,14.69
2023-02-02T13:19:56.484Z,14.79
2023-02-02T13:22:40.793Z,14.70
2023-02-02T13:25:27.244Z,14.63
2023-02-02T13:27:56.528Z,14.37
2023-02-02T13:30:38.778Z,14.20
2023-02-02T13:33:29.904Z,14.20
2023-02-02T13:36:29.548Z,14.18
2023-02-02T13:39:00.205Z,14.10
2023-02-02T13:41:28.897Z,14.07
2023-02-02T13:44:12.601Z,14.14
2023-02-02T13:46:55.684Z,14.11
2023-02-02T13:49:41.759Z,14.20
2023-02-02T13:52:27.577Z,14.26
2023-02-02T13:55:26.343Z,14.13
2023-02-02T13:58:12.335Z,14.14
2023-02-02T14:00:53.998Z,13.94
2023-02-02T14:03:38.645Z,13.65
2023-02-02T14:06:17.645Z,13.49
2023-02-02T14:08:46.837Z,13.43
2023-02-02T14:11:24.680Z,13.38
2023-02-02T14:14:15.546Z,13.38
2023-02-02T14:16:46.530Z,13.39
2023-02-02T14:19:16.070Z,13.32
2023-02-02T14:21:44.003Z,13.29
2023-02-02T14:24:26.381Z,13.44
2023-02-02T14:27:00.133Z,13.20
2023-02-02T14:29:34.787Z,13.15
2023-02-02T14:32:27.800Z,13.00
2023-02-02T14:35:08.329Z,12.96
2023-02-02T14:37:41.603Z,13.06
2023-02-02T14:40:26.784Z,13.05
2023-02-02T14:43:40.826Z,13.01
2023-02-02T14:46:38.778Z,12.66
2023-02-02T14:49:14.813Z,12.65
2023-02-02T14:51:58.803Z,12.68
2023-02-02T14:54:41.417Z,12.62
2023-02-02T14:57:28.532Z,12.63
2023-02-02T14:59:59.985Z,12.58
2023-02-02T15:02:38.148Z,12.62
2023-02-02T15:05:34.063Z,12.47
2023-02-02T15:08:27.774Z,12.49
2023-02-02T15:10:55.001Z,12.50
2023-02-02T15:13:26.865Z,12.45
2023-02-02T15:16:07.502Z,12.43
2023-02-02T15:18:44.519Z,12.48
2023-02-02T15:21:17.288Z,12.48
2023-02-02T15:23:46.849Z,12.42
2023-02-02T15:26:24.683Z,12.29
2023-02-02T15:29:06.811Z,12.29
2023-02-02T15:31:42.951Z,12.24
2023-02-02T15:34:23.328Z,12.27
2023-02-02T15:36:59.978Z,12.29
2023-02-02T15:39:41.239Z,12.48
2023-02-02T15:42:36.445Z,12.55
2023-02-02T15:45:04.430Z,12.63
2023-02-02T15:47:36.340Z,12.70
2023-02-02T15:50:19.471Z,12.79
2023-02-02T15:52:52.374Z,12.82
2023-02-02T15:55:24.660Z,12.65
2023-02-02T15:57:54.352Z,12.59
2023-02-02T16:00:37.889Z,12.51
2023-02-02T16:03:10.913Z,12.37
2023-02-02T16:05:44.329Z,12.28
2023-02-02T16:08:17.843Z,12.22
2023-02-02T16:10:46.836Z,12.09
2023-02-02T16:13:23.899Z,11.92
2023-02-02T16:16:00.574Z,11.84
2023-02-02T16:18:28.387Z,11.75
2023-02-02T16:20:59.261Z,11.67
2023-02-02T16:23:35.958Z,11.56
2023-02-02T16:26:06.025Z,11.51
2023-02-02T16:28:36.909Z,11.55
2023-02-02T16:31:05.226Z,11.49
2023-02-02T16:33:40.843Z,11.57
2023-02-02T16:36:24.389Z,11.54
2023-02-02T16:38:53.949Z,11.53
2023-02-02T16:41:37.114Z,11.58
2023-02-02T16:44:45.642Z,11.45
2023-02-02T16:47:27.954Z,11.38
2023-02-02T16:50:24.887Z,11.26
2023-02-02T16:52:56.431Z,11.15
2023-02-02T16:55:24.326Z,11.07
2023-02-02T16:57:52.252Z,10.95
2023-02-02T17:00:25.329Z,10.90
2023-02-02T17:03:08.424Z,10.84
2023-02-02T17:05:47.829Z,10.77
2023-02-02T17:08:35.106Z,10.66
2023-02-02T17:11:06.280Z,10.57
2023-02-02T17:13:36.626Z,10.55
2023-02-02T17:16:05.173Z,10.49
2023-02-02T17:18:35.240Z,10.36
2023-02-02T17:21:07.436Z,10.20
2023-02-02T17:23:38.926Z,10.08
2023-02-02T17:26:08.189Z,9.98
2023-02-02T17:28:37.518Z,9.96
2023-02-02T17:31:11.620Z,9.79
2023-02-02T17:33:39.633Z,9.62
2023-02-02T17:36:08.393Z,9.55
2023-02-02T17:38:35.748Z,9.47
2023-02-02T17:41:03.342Z,9.40
2023-02-02T17:43:32.639Z,9.36
2023-02-02T17:46:00.440Z,9.24
2023-02-02T17:48:27.917Z,9.13
2023-02-02T17:50:55.168Z,9.10
2023-02-02T17:53:22.716Z,9.02
2023-02-02T17:55:51.510Z,8.94
2023-02-02T17:58:19.423Z,8.87
2023-02-02T18:00:51.886Z,8.74
2023-02-02T18:03:30.248Z,8.63
2023-02-02T18:06:01.585Z,8.59
2023-02-02T18:08:30.315Z,8.52
2023-02-02T18:10:59.392Z,8.41
2023-02-02T18:13:27.497Z,8.38
2023-02-02T18:15:56.015Z,8.20
2023-02-02T18:18:23.722Z,8.16
2023-02-02T18:20:51.454Z,8.08
2023-02-02T18:23:19.204Z,8.11
2023-02-02T18:25:46.739Z,8.03
2023-02-02T18:28:17.084Z,7.98
2023-02-02T18:30:46.937Z,7.98
2023-02-02T18:33:19.449Z,7.95
2023-02-02T18:35:47.891Z,8.02
2023-02-02T18:38:15.432Z,7.99
2023-02-02T18:40:42.890Z,7.92
2023-02-02T18:43:10.431Z,7.88
2023-02-02T18:45:37.752Z,7.84
2023-02-02T18:48:05.118Z,7.73
2023-02-02T18:50:32.333Z,7.66
2023-02-02T18:53:00.629Z,7.67
2023-02-02T18:55:28.403Z,7.74
2023-02-02T18:57:56.019Z,7.83
2023-02-02T19:00:23.410Z,7.78
2023-02-02T19:02:50.723Z,7.65
2023-02-02T19:05:36.567Z,7.55
2023-02-02T19:08:05.762Z,7.46
2023-02-02T19:10:33.118Z,7.49
2023-02-02T19:13:19.086Z,7.41
2023-02-02T19:15:48.833Z,7.35
2023-02-02T19:18:19.446Z,7.22
2023-02-02T19:20:49.140Z,7.25
2023-02-02T19:23:19.004Z,7.37
2023-02-02T19:25:51.377Z,7.23
2023-02-02T19:28:30.714Z,7.13
2023-02-02T19:31:02.870Z,7.03
2023-02-02T19:33:47.213Z,6.93
2023-02-02T19:36:19.178Z,7.04
2023-02-02T19:38:46.891Z,7.10
2023-02-02T19:41:22.611Z,7.04
2023-02-02T19:43:55.820Z,6.96
2023-02-02T19:46:25.961Z,6.97
2023-02-02T19:49:04.003Z,6.87
2023-02-02T19:51:39.394Z,6.88
2023-02-02T19:54:25.663Z,6.73
2023-02-02T19:57:14.478Z,6.66
2023-02-02T19:59:43.308Z,6.62
2023-02-02T20:02:41.312Z,6.61
2023-02-02T20:05:11.420Z,6.45
2023-02-02T20:07:39.126Z,6.33
2023-02-02T20:10:36.917Z,6.22
2023-02-02T20:13:23.276Z,6.05
2023-02-02T20:15:54.685Z,6.31
2023-02-02T20:18:42.336Z,6.12
2023-02-02T20:21:25.363Z,6.04
2023-02-02T20:23:53.102Z,6.07
2023-02-02T20:26:34.625Z,6.15
2023-02-02T20:29:22.954Z,6.07
2023-02-02T20:31:52.781Z,6.04
2023-02-02T20:34:32.932Z,5.95
2023-02-02T20:37:16.262Z,6.01
2023-02-02T20:39:47.881Z,5.86
2023-02-02T20:42:15.345Z,5.89
2023-02-02T20:44:42.974Z,5.84
2023-02-02T20:47:10.396Z,5.77
2023-02-02T20:49:38.397Z,5.78
2023-02-02T20:52:10.654Z,5.77
2023-02-02T20:54:39.212Z,5.67
2023-02-02T20:57:08.936Z,5.61
2023-02-02T20:59:36.402Z,5.55
2023-02-02T21:02:05.270Z,5.40
2023-02-02T21:04:32.740Z,5.37
2023-02-02T21:07:00.156Z,5.29
2023-02-02T21:09:27.544Z,5.10
2023-02-02T21:11:54.775Z,5.07
2023-02-02T21:14:22.113Z,5.14
2023-02-02T21:16:49.408Z,5.14
2023-02-02T21:19:16.822Z,4.91
2023-02-02T21:21:44.138Z,4.97
2023-02-02T21:24:11.461Z,5.01
2023-02-02T21:26:38.927Z,4.96
2023-02-02T21:29:06.307Z,5.03
2023-02-02T21:31:35.833Z,5.05
2023-02-02T21:34:03.338Z,5.03
2023-02-02T21:36:33.487Z,5.14
2023-02-02T21:39:21.557Z,5.13
2023-02-02T21:41:49.942Z,5.19
2023-02-02T21:44:19.622Z,5.13
2023-02-02T21:46:51.599Z,5.11
2023-02-02T21:49:21.644Z,4.87
2023-02-02T21:51:49.079Z,4.95
2023-02-02T21:54:28.035Z,4.96
2023-02-02T21:56:55.682Z,4.85
2023-02-02T21:59:28.494Z,4.81
2023-02-02T22:01:55.732Z,4.87
2023-02-02T22:04:24.459Z,4.97
2023-02-02T22:06:58.886Z,4.93
2023-02-02T22:09:38.213Z,4.87
2023-02-02T22:12:17.552Z,4.74
2023-02-02T22:14:46.265Z,4.75
2023-02-02T22:17:25.172Z,4.80
2023-02-02T22:20:10.107Z,4.87
2023-02-02T22:22:42.117Z,4.73
2023-02-02T22:25:18.335Z,4.61
2023-02-02T22:27:50.899Z,4.60
2023-02-02T22:30:29.179Z,4.60
2023-02-02T22:32:56.789Z,4.65
2023-02-02T22:35:24.621Z,4.59
2023-02-02T22:37:51.883Z,4.56
2023-02-02T22:40:22.431Z,4.47
2023-02-02T22:42:51.158Z,4.60
2023-02-02T22:45:18.548Z,4.60
2023-02-02T22:47:47.582Z,4.55
2023-02-02T22:50:26.245Z,4.58
2023-02-02T22:52:53.816Z,4.61
2023-02-02T22:55:21.743Z,4.54
2023-02-02T22:57:49.040Z,4.45
2023-02-02T23:00:18.841Z,4.37
2023-02-02T23:02:47.336Z,4.18
2023-02-02T23:05:17.051Z,4.22
2023-02-02T23:07:45.337Z,4.21
2023-02-02T23:10:14.655Z,4.26
2023-02-02T23:12:45.578Z,4.28
2023-02-02T23:15:14.134Z,4.29
2023-02-02T23:17:41.746Z,4.30
2023-02-02T23:20:12.109Z,4.15
2023-02-02T23:22:39.573Z,4.13
2023-02-02T23:25:07.626Z,4.26
2023-02-02T23:27:34.881Z,4.23
2023-02-02T23:30:02.237Z,4.22
2023-02-02T23:32:29.438Z,4.29
2023-02-02T23:34:56.736Z,4.18
2023-02-02T23:37:23.947Z,4.20
2023-02-02T23:39:51.254Z,4.21
2023-02-02T23:42:18.647Z,4.13
2023-02-02T23:44:46.020Z,4.07
2023-02-02T23:47:13.509Z,3.98
2023-02-02T23:49:40.839Z,4.10
2023-02-02T23:52:08.126Z,4.00
2023-02-02T23:54:36.093Z,4.10
2023-02-02T23:57:05.819Z,4.05
2023-02-02T23:59:33.137Z,3.85
